createdAt,value
2023-03-26T00:01:13.917Z,11.73
2023-03-26T00:03:41.016Z,9.27
2023-03-26T00:06:10.546Z,12.57
2023-03-26T00:08:38.538Z,10.10
2023-03-26T00:11:06.588Z,11.05
2023-03-26T00:13:33.197Z,11.65
2023-03-26T00:16:01.208Z,10.70
2023-03-26T00:18:31.527Z,11.20
2023-03-26T00:20:59.338Z,9.90
2023-03-26T00:23:28.221Z,12.13
2023-03-26T00:25:56.118Z,11.80
2023-03-26T00:28:23.644Z,6.70
2023-03-26T00:30:56.744Z,7.65
2023-03-26T00:33:23.463Z,8.70
2023-03-26T00:35:54.404Z,9.77
2023-03-26T00:38:24.836Z,9.48
2023-03-26T00:40:52.298Z,5.50
2023-03-26T00:43:20.435Z,8.43
2023-03-26T00:45:51.502Z,9.25
2023-03-26T00:48:18.584Z,6.15
2023-03-26T00:50:46.725Z,8.73
2023-03-26T00:53:14.826Z,6.90
2023-03-26T00:55:42.308Z,13.40
2023-03-26T00:58:12.193Z,5.75
2023-03-26T01:00:46.369Z,6.88
2023-03-26T01:03:26.953Z,11.90
2023-03-26T01:06:02.605Z,9.67
2023-03-26T01:08:33.262Z,7.95
2023-03-26T01:11:07.415Z,10.98
2023-03-26T01:13:39.838Z,6.53
2023-03-26T01:16:20.106Z,9.43
2023-03-26T01:18:48.617Z,6.43
2023-03-26T01:21:22.564Z,9.07
2023-03-26T01:23:57.290Z,7.72
2023-03-26T01:26:41.089Z,5.32
2023-03-26T01:29:19.432Z,7.32
2023-03-26T01:32:00.890Z,6.73
2023-03-26T01:34:49.658Z,9.48
2023-03-26T01:37:32.568Z,5.55
2023-03-26T01:40:06.961Z,4.15
2023-03-26T01:42:43.569Z,9.32
2023-03-26T01:45:15.624Z,6.87
2023-03-26T01:47:43.931Z,5.28
2023-03-26T01:50:10.465Z,4.32
2023-03-26T01:52:37.393Z,8.90
2023-03-26T01:55:04.663Z,5.35
2023-03-26T01:58:13.393Z,5.17
2023-03-26T02:00:55.073Z,10.52
2023-03-26T02:03:30.266Z,4.32
2023-03-26T02:05:57.813Z,4.88
2023-03-26T02:08:35.273Z,7.20
2023-03-26T02:11:11.746Z,5.30
2023-03-26T02:13:44.970Z,5.70
2023-03-26T02:16:14.353Z,6.65
2023-03-26T02:18:41.863Z,5.75
2023-03-26T02:21:19.969Z,10.30
2023-03-26T02:23:57.715Z,7.13
2023-03-26T02:26:25.182Z,3.90
2023-03-26T02:28:51.656Z,5.07
2023-03-26T02:31:19.385Z,5.78
2023-03-26T02:33:47.525Z,10.95
2023-03-26T02:36:14.304Z,5.20
2023-03-26T02:38:41.642Z,3.63
2023-03-26T02:41:08.131Z,5.65
2023-03-26T02:43:34.526Z,5.25
2023-03-26T02:46:01.192Z,6.90
2023-03-26T02:48:27.650Z,3.43
2023-03-26T02:50:56.936Z,5.45
2023-03-26T02:53:29.567Z,6.00
2023-03-26T02:55:57.679Z,8.05
2023-03-26T02:58:26.383Z,7.72
2023-03-26T03:00:56.909Z,6.37
2023-03-26T03:03:27.983Z,10.63
2023-03-26T03:05:55.173Z,9.23
2023-03-26T03:08:23.913Z,9.55
2023-03-26T03:11:23.515Z,16.67
2023-03-26T03:13:50.656Z,10.33
2023-03-26T03:16:17.391Z,12.88
2023-03-26T03:18:44.299Z,12.02
2023-03-26T03:21:10.902Z,17.65
2023-03-26T03:23:37.374Z,18.17
2023-03-26T03:26:04.062Z,26.23
2023-03-26T03:28:30.559Z,26.15
2023-03-26T03:30:57.614Z,24.00
2023-03-26T03:33:24.114Z,22.15
2023-03-26T03:35:51.060Z,16.08
2023-03-26T03:38:18.002Z,17.23
2023-03-26T03:40:45.098Z,20.48
2023-03-26T03:43:11.552Z,23.95
2023-03-26T03:45:37.970Z,20.58
2023-03-26T03:48:04.713Z,25.67
2023-03-26T03:50:33.106Z,16.13
2023-03-26T03:53:01.560Z,22.63
2023-03-26T03:55:28.046Z,20.85
2023-03-26T03:57:54.733Z,28.23
2023-03-26T04:00:22.621Z,26.88
2023-03-26T04:02:49.162Z,18.43
2023-03-26T04:05:15.642Z,32.55
2023-03-26T04:07:42.154Z,22.35
2023-03-26T04:10:09.803Z,28.48
2023-03-26T04:12:36.261Z,16.50
2023-03-26T04:15:03.586Z,27.93
2023-03-26T04:17:30.583Z,23.48
2023-03-26T04:19:57.364Z,16.88
2023-03-26T04:22:26.119Z,18.55
2023-03-26T04:24:54.347Z,21.23
2023-03-26T04:27:28.213Z,27.03
2023-03-26T04:29:54.983Z,22.13
2023-03-26T04:32:29.634Z,19.35
2023-03-26T04:35:00.266Z,20.52
2023-03-26T04:37:34.479Z,18.42
2023-03-26T04:40:06.302Z,25.80
2023-03-26T04:42:33.345Z,27.20
2023-03-26T04:44:59.838Z,28.45
2023-03-26T04:47:26.230Z,21.45
2023-03-26T04:49:52.692Z,25.73
2023-03-26T04:52:19.199Z,22.40
2023-03-26T04:54:46.047Z,22.23
2023-03-26T04:57:29.513Z,19.17
2023-03-26T04:59:56.289Z,24.40
2023-03-26T05:02:22.993Z,19.08
2023-03-26T05:04:50.013Z,18.27
2023-03-26T05:07:25.070Z,16.80
2023-03-26T05:09:51.443Z,22.08
2023-03-26T05:12:17.910Z,22.55
2023-03-26T05:14:44.378Z,18.95
2023-03-26T05:17:14.898Z,16.70
2023-03-26T05:19:41.705Z,16.77
2023-03-26T05:22:08.193Z,21.90
2023-03-26T05:24:34.616Z,17.30
2023-03-26T05:27:01.229Z,30.15
2023-03-26T05:29:27.834Z,26.77
2023-03-26T05:31:54.293Z,21.50
2023-03-26T05:34:24.030Z,23.92
2023-03-26T05:36:50.596Z,22.92
2023-03-26T05:39:17.088Z,29.50
2023-03-26T05:41:44.079Z,24.37
2023-03-26T05:44:10.723Z,27.00
2023-03-26T05:46:37.309Z,21.10
2023-03-26T05:49:03.728Z,18.75
2023-03-26T05:51:30.279Z,18.50
2023-03-26T05:53:56.774Z,19.57
2023-03-26T05:56:23.223Z,17.88
2023-03-26T05:58:51.488Z,18.58
2023-03-26T06:01:19.531Z,20.85
2023-03-26T06:03:47.028Z,23.38
2023-03-26T06:06:17.435Z,28.57
2023-03-26T06:09:01.395Z,22.70
2023-03-26T06:11:29.305Z,20.40
2023-03-26T06:13:55.784Z,18.20
2023-03-26T06:16:26.330Z,23.70
2023-03-26T06:18:56.685Z,22.67
2023-03-26T06:21:28.106Z,25.33
2023-03-26T06:23:55.288Z,24.92
2023-03-26T06:26:22.267Z,24.88
2023-03-26T06:28:48.844Z,19.42
2023-03-26T06:31:17.200Z,20.23
2023-03-26T06:33:43.695Z,19.75
2023-03-26T06:36:10.529Z,23.48
2023-03-26T06:38:37.012Z,18.25
2023-03-26T06:41:04.809Z,23.33
2023-03-26T06:43:33.617Z,19.40
2023-03-26T06:46:01.413Z,21.83
2023-03-26T06:48:27.934Z,23.52
2023-03-26T06:50:55.267Z,25.30
2023-03-26T06:53:21.829Z,16.13
2023-03-26T06:55:48.293Z,17.80
2023-03-26T06:58:14.714Z,24.85
2023-03-26T07:00:42.319Z,20.73
2023-03-26T07:03:09.846Z,27.88
2023-03-26T07:05:36.213Z,25.23
2023-03-26T07:08:03.110Z,16.63
2023-03-26T07:10:29.695Z,16.73
2023-03-26T07:12:56.092Z,22.30
2023-03-26T07:15:22.608Z,13.85
2023-03-26T07:17:49.091Z,17.13
2023-03-26T07:20:15.827Z,19.83
2023-03-26T07:22:42.747Z,23.17
2023-03-26T07:25:10.129Z,17.13
2023-03-26T07:28:00.678Z,21.42
2023-03-26T07:30:31.757Z,24.35
2023-03-26T07:33:09.142Z,18.70
2023-03-26T07:35:56.047Z,19.58
2023-03-26T07:38:22.349Z,23.15
2023-03-26T07:41:07.305Z,23.65
2023-03-26T07:43:51.021Z,18.50
2023-03-26T07:46:20.586Z,24.90
2023-03-26T07:48:51.821Z,25.27
2023-03-26T07:51:18.743Z,27.05
2023-03-26T07:53:45.718Z,24.38
2023-03-26T07:56:31.034Z,20.38
2023-03-26T07:59:14.045Z,31.10
2023-03-26T08:02:11.659Z,30.95
2023-03-26T08:05:19.608Z,23.55
2023-03-26T08:07:50.733Z,24.08
2023-03-26T08:10:26.075Z,25.30
2023-03-26T08:13:00.032Z,23.87
2023-03-26T08:15:40.778Z,28.10
2023-03-26T08:18:27.316Z,21.10
2023-03-26T08:21:00.795Z,21.58
2023-03-26T08:24:18.468Z,25.92
2023-03-26T08:26:45.375Z,19.97
2023-03-26T08:29:26.593Z,24.20
2023-03-26T08:31:54.821Z,16.52
2023-03-26T08:34:21.225Z,23.83
2023-03-26T08:36:47.703Z,24.90
2023-03-26T08:39:14.206Z,21.30
2023-03-26T08:42:12.932Z,21.48
2023-03-26T08:45:06.548Z,25.00
2023-03-26T08:48:10.507Z,22.33
2023-03-26T08:50:47.077Z,20.83
2023-03-26T08:53:35.590Z,21.73
2023-03-26T08:56:26.507Z,17.02
2023-03-26T08:59:12.941Z,19.40
2023-03-26T09:02:22.782Z,24.77
2023-03-26T09:04:57.586Z,18.70
2023-03-26T09:07:47.147Z,21.40
2023-03-26T09:10:33.152Z,23.05
2023-03-26T09:13:36.924Z,25.88
2023-03-26T09:16:26.343Z,26.98
2023-03-26T09:18:53.565Z,21.92
2023-03-26T09:21:37.897Z,21.17
2023-03-26T09:24:38.503Z,19.50
2023-03-26T09:27:20.839Z,21.42
2023-03-26T09:30:12.154Z,20.90
2023-03-26T09:33:11.545Z,15.63
2023-03-26T09:35:46.797Z,25.83
2023-03-26T09:38:44.815Z,19.88
2023-03-26T09:41:22.685Z,17.65
2023-03-26T09:44:14.063Z,19.08
2023-03-26T09:47:04.534Z,13.63
2023-03-26T09:49:54.372Z,16.77
2023-03-26T09:52:45.927Z,17.70
2023-03-26T09:55:43.639Z,14.48
2023-03-26T09:58:32.060Z,17.33
2023-03-26T10:01:22.201Z,13.02
2023-03-26T10:04:01.798Z,15.33
2023-03-26T10:06:31.276Z,15.40
2023-03-26T10:09:19.512Z,17.35
2023-03-26T10:12:07.725Z,13.23
2023-03-26T10:14:47.598Z,13.00
2023-03-26T10:17:25.506Z,14.10
2023-03-26T10:19:58.955Z,11.05
2023-03-26T10:23:12.989Z,11.07
2023-03-26T10:26:04.331Z,9.65
2023-03-26T10:29:04.848Z,10.93
2023-03-26T10:31:51.559Z,14.53
2023-03-26T10:34:54.545Z,9.10
2023-03-26T10:37:39.975Z,12.75
2023-03-26T10:40:19.183Z,6.65
2023-03-26T10:43:22.966Z,10.18
2023-03-26T10:46:02.596Z,8.63
2023-03-26T10:49:04.259Z,11.88
2023-03-26T10:51:30.681Z,10.20
2023-03-26T10:54:10.960Z,7.97
2023-03-26T10:56:45.777Z,11.80
2023-03-26T10:59:14.408Z,7.23
2023-03-26T11:01:53.016Z,8.20
2023-03-26T11:04:47.338Z,11.05
2023-03-26T11:07:35.774Z,6.40
2023-03-26T11:10:23.983Z,6.88
2023-03-26T11:13:38.853Z,10.93
2023-03-26T11:16:09.620Z,8.40
2023-03-26T11:19:15.863Z,6.47
2023-03-26T11:21:45.348Z,9.77
2023-03-26T11:24:41.382Z,11.07
2023-03-26T11:27:23.738Z,9.70
2023-03-26T11:30:14.094Z,8.73
2023-03-26T11:32:51.837Z,9.10
2023-03-26T11:35:39.538Z,9.02
2023-03-26T11:38:19.857Z,9.25
2023-03-26T11:40:50.940Z,10.23
2023-03-26T11:43:24.234Z,8.35
2023-03-26T11:45:51.774Z,11.85
2023-03-26T11:48:31.874Z,10.95
2023-03-26T11:51:10.729Z,13.70
2023-03-26T11:53:46.499Z,10.77
2023-03-26T11:56:26.969Z,7.90
2023-03-26T11:59:09.957Z,10.10
2023-03-26T12:02:14.818Z,8.07
2023-03-26T12:04:43.903Z,11.25
2023-03-26T12:07:17.417Z,8.93
2023-03-26T12:09:57.453Z,7.28
2023-03-26T12:12:46.977Z,6.80
2023-03-26T12:15:19.758Z,11.00
2023-03-26T12:17:48.071Z,11.98
2023-03-26T12:20:26.821Z,9.03
2023-03-26T12:22:59.138Z,7.82
2023-03-26T12:25:30.824Z,13.60
2023-03-26T12:28:04.892Z,9.82
2023-03-26T12:30:35.488Z,12.20
2023-03-26T12:33:05.414Z,8.17
2023-03-26T12:35:34.734Z,9.73
2023-03-26T12:38:24.753Z,11.95
2023-03-26T12:42:52.656Z,4.90
2023-03-26T12:44:55.536Z,8.68
2023-03-26T12:47:57.876Z,8.97
2023-03-26T12:49:33.681Z,8.98
2023-03-26T12:52:18.753Z,8.55
2023-03-26T12:55:03.142Z,9.18
2023-03-26T12:57:52.485Z,6.15
2023-03-26T13:00:40.864Z,8.07
2023-03-26T13:03:37.806Z,5.60
2023-03-26T13:06:30.888Z,4.57
2023-03-26T13:09:19.552Z,9.45
2023-03-26T13:12:01.475Z,3.90
2023-03-26T13:14:56.307Z,9.83
2023-03-26T13:17:39.951Z,11.70
2023-03-26T13:20:33.007Z,12.00
2023-03-26T13:23:20.690Z,6.22
2023-03-26T13:26:23.425Z,6.55
2023-03-26T13:29:25.845Z,7.90
2023-03-26T13:32:22.602Z,5.82
2023-03-26T13:34:58.234Z,5.60
2023-03-26T13:37:36.825Z,11.68
2023-03-26T13:40:22.250Z,8.95
2023-03-26T13:43:10.324Z,7.37
2023-03-26T13:45:47.410Z,4.35
2023-03-26T13:48:19.149Z,5.18
2023-03-26T13:50:57.112Z,2.63
2023-03-26T13:53:41.871Z,6.25
2023-03-26T13:56:12.635Z,8.33
2023-03-26T13:58:47.418Z,7.90
2023-03-26T14:01:18.814Z,3.60
2023-03-26T14:04:00.336Z,4.60
2023-03-26T14:07:00.205Z,6.35
2023-03-26T14:09:31.948Z,3.97
2023-03-26T14:12:21.155Z,6.63
2023-03-26T14:14:57.852Z,7.22
2023-03-26T14:17:30.917Z,5.32
2023-03-26T14:20:09.446Z,7.68
2023-03-26T14:22:42.221Z,8.93
2023-03-26T14:25:46.983Z,6.03
2023-03-26T14:28:29.559Z,3.20
2023-03-26T14:31:11.237Z,5.70
2023-03-26T14:33:49.902Z,4.22
2023-03-26T14:36:29.467Z,4.53
2023-03-26T14:39:31.850Z,4.45
2023-03-26T14:42:11.985Z,6.90
2023-03-26T14:44:57.012Z,3.47
2023-03-26T14:47:27.008Z,2.28
2023-03-26T14:50:21.461Z,4.57
2023-03-26T14:53:01.448Z,4.55
2023-03-26T14:55:49.578Z,2.25
2023-03-26T14:58:37.601Z,5.15
2023-03-26T15:01:26.826Z,3.25
2023-03-26T15:04:38.370Z,3.43
2023-03-26T15:07:38.484Z,2.95
2023-03-26T15:10:42.456Z,6.05
2023-03-26T15:13:44.581Z,6.97
2023-03-26T15:16:28.020Z,5.47
2023-03-26T15:19:13.557Z,7.23
2023-03-26T15:22:10.051Z,12.43
2023-03-26T15:25:01.294Z,3.92
2023-03-26T15:28:08.155Z,4.80
2023-03-26T15:30:53.465Z,9.93
2023-03-26T15:33:44.955Z,15.13
2023-03-26T15:36:34.417Z,7.28
2023-03-26T15:39:23.347Z,6.45
2023-03-26T15:42:22.115Z,3.47
2023-03-26T15:45:24.458Z,8.63
2023-03-26T15:48:12.635Z,6.50
2023-03-26T15:50:45.566Z,5.65
2023-03-26T15:53:39.363Z,2.40
2023-03-26T15:56:34.237Z,9.35
2023-03-26T15:59:39.961Z,14.27
2023-03-26T16:02:07.422Z,4.13
2023-03-26T16:04:51.500Z,6.72
2023-03-26T16:07:47.226Z,5.80
2023-03-26T16:10:35.707Z,7.95
2023-03-26T16:13:17.418Z,5.75
2023-03-26T16:15:55.857Z,5.63
2023-03-26T16:18:27.783Z,3.78
2023-03-26T16:21:04.318Z,7.68
2023-03-26T16:23:47.582Z,8.05
2023-03-26T16:26:51.662Z,8.93
2023-03-26T16:29:19.470Z,7.93
2023-03-26T16:32:07.291Z,8.20
2023-03-26T16:34:57.308Z,6.18
2023-03-26T16:37:36.173Z,5.93
2023-03-26T16:40:18.463Z,5.07
2023-03-26T16:43:22.063Z,6.97
2023-03-26T16:46:03.744Z,7.45
2023-03-26T16:48:50.418Z,5.10
2023-03-26T16:51:33.070Z,3.50
2023-03-26T16:54:04.226Z,2.67
2023-03-26T16:56:42.124Z,4.00
2023-03-26T16:59:38.863Z,4.78
2023-03-26T17:02:31.197Z,3.05
2023-03-26T17:05:25.824Z,7.10
2023-03-26T17:07:58.005Z,4.50
2023-03-26T17:10:33.407Z,5.87
2023-03-26T17:13:16.720Z,7.90
2023-03-26T17:16:14.789Z,4.60
2023-03-26T17:19:03.721Z,4.95
2023-03-26T17:21:49.859Z,3.13
2023-03-26T17:24:29.405Z,5.93
2023-03-26T17:27:18.020Z,6.85
2023-03-26T17:29:59.552Z,4.47
2023-03-26T17:32:54.350Z,6.25
2023-03-26T17:35:41.082Z,6.75
2023-03-26T17:38:16.563Z,3.23
2023-03-26T17:40:48.968Z,3.38
2023-03-26T17:43:51.189Z,5.47
2023-03-26T17:46:26.856Z,3.35
2023-03-26T17:49:11.328Z,6.32
2023-03-26T17:51:50.302Z,4.70
2023-03-26T17:54:30.535Z,4.78
2023-03-26T17:57:03.065Z,4.40
2023-03-26T17:59:31.851Z,7.00
2023-03-26T18:02:05.391Z,3.72
2023-03-26T18:04:34.889Z,6.37
2023-03-26T18:07:49.449Z,5.75
2023-03-26T18:10:48.163Z,2.55
2023-03-26T18:13:38.990Z,4.75
2023-03-26T18:16:14.468Z,6.65
2023-03-26T18:18:53.364Z,6.03
2023-03-26T18:21:43.922Z,8.50
2023-03-26T18:24:17.357Z,4.65
2023-03-26T18:26:46.809Z,3.85
2023-03-26T18:29:22.332Z,4.55
2023-03-26T18:31:54.862Z,8.87
2023-03-26T18:34:21.868Z,5.18
2023-03-26T18:37:15.273Z,4.68
2023-03-26T18:39:57.202Z,3.42
2023-03-26T18:42:24.976Z,6.18
2023-03-26T18:44:52.848Z,7.30
2023-03-26T18:47:20.445Z,9.65
2023-03-26T18:49:49.821Z,5.35
2023-03-26T18:52:19.087Z,5.60
2023-03-26T18:54:52.426Z,7.57
2023-03-26T18:57:25.786Z,4.23
2023-03-26T18:59:54.648Z,2.72
2023-03-26T19:02:22.077Z,4.00
2023-03-26T19:04:50.866Z,3.65
2023-03-26T19:07:25.081Z,5.13
2023-03-26T19:09:56.109Z,8.97
2023-03-26T19:12:27.809Z,4.45
2023-03-26T19:15:13.965Z,6.47
2023-03-26T19:17:45.072Z,4.57
2023-03-26T19:20:19.418Z,5.35
2023-03-26T19:22:47.579Z,5.83
2023-03-26T19:25:22.521Z,6.43
2023-03-26T19:27:50.694Z,6.93
2023-03-26T19:30:29.769Z,5.72
2023-03-26T19:33:13.544Z,6.43
2023-03-26T19:35:42.108Z,7.80
2023-03-26T19:38:24.752Z,4.50
2023-03-26T19:40:54.834Z,4.53
2023-03-26T19:43:22.406Z,5.90
2023-03-26T19:46:00.266Z,6.10
2023-03-26T19:48:46.175Z,2.20
2023-03-26T19:51:20.253Z,6.68
2023-03-26T19:53:53.088Z,5.75
2023-03-26T19:56:20.754Z,4.78
2023-03-26T19:58:48.560Z,4.80
2023-03-26T20:01:27.173Z,4.03
2023-03-26T20:04:00.971Z,5.13
2023-03-26T20:06:42.452Z,3.20
2023-03-26T20:09:11.300Z,4.28
2023-03-26T20:11:39.679Z,4.13
2023-03-26T20:14:19.811Z,5.33
2023-03-26T20:16:46.502Z,7.32
2023-03-26T20:19:14.510Z,6.07
2023-03-26T20:21:41.808Z,8.70
2023-03-26T20:24:17.033Z,1.83
2023-03-26T20:26:44.535Z,2.93
2023-03-26T20:29:11.687Z,6.38
2023-03-26T20:31:39.691Z,8.48
2023-03-26T20:34:19.703Z,5.10
2023-03-26T20:36:47.008Z,8.32
2023-03-26T20:39:14.176Z,2.67
2023-03-26T20:41:45.407Z,4.57
2023-03-26T20:44:15.432Z,3.85
2023-03-26T20:46:43.148Z,1.35
2023-03-26T20:49:10.784Z,2.17
2023-03-26T20:51:41.949Z,4.63
2023-03-26T20:54:21.425Z,5.40
2023-03-26T20:56:48.859Z,6.40
2023-03-26T20:59:21.958Z,11.48
2023-03-26T21:01:50.063Z,5.57
2023-03-26T21:04:17.127Z,12.17
2023-03-26T21:06:43.929Z,2.55
2023-03-26T21:09:17.505Z,3.88
2023-03-26T21:12:01.447Z,4.13
2023-03-26T21:14:32.831Z,2.28
2023-03-26T21:17:00.315Z,3.27
2023-03-26T21:19:27.261Z,4.63
2023-03-26T21:22:25.713Z,6.22
2023-03-26T21:25:11.686Z,6.15
2023-03-26T21:27:44.152Z,4.10
2023-03-26T21:30:16.742Z,4.00
2023-03-26T21:32:45.288Z,3.88
2023-03-26T21:35:13.497Z,4.50
2023-03-26T21:37:42.983Z,3.67
2023-03-26T21:40:14.835Z,4.72
2023-03-26T21:42:51.800Z,3.97
2023-03-26T21:45:19.380Z,5.40
2023-03-26T21:47:46.524Z,4.63
2023-03-26T21:50:16.402Z,3.30
2023-03-26T21:52:49.413Z,4.32
2023-03-26T21:55:17.802Z,5.90
2023-03-26T21:58:00.694Z,4.38
2023-03-26T22:00:43.302Z,3.35
2023-03-26T22:03:34.940Z,8.65
2023-03-26T22:06:13.594Z,1.92
2023-03-26T22:08:41.446Z,3.37
2023-03-26T22:11:10.132Z,7.45
2023-03-26T22:13:38.580Z,3.67
2023-03-26T22:16:07.131Z,3.97
2023-03-26T22:18:34.367Z,4.00
2023-03-26T22:21:00.977Z,6.13
2023-03-26T22:23:34.052Z,2.78
2023-03-26T22:26:00.567Z,1.65
2023-03-26T22:28:27.134Z,5.47
2023-03-26T22:30:53.682Z,6.55
2023-03-26T22:33:20.291Z,3.87
2023-03-26T22:35:47.401Z,4.88
2023-03-26T22:38:13.899Z,2.00
2023-03-26T22:40:40.345Z,4.43
2023-03-26T22:43:07.258Z,4.63
2023-03-26T22:45:33.624Z,2.83
2023-03-26T22:48:04.055Z,2.55
2023-03-26T22:50:31.048Z,4.88
2023-03-26T22:52:57.503Z,2.17
2023-03-26T22:55:27.957Z,6.13
2023-03-26T22:57:55.717Z,2.80
2023-03-26T23:00:22.248Z,2.53
2023-03-26T23:02:48.694Z,2.65
2023-03-26T23:05:18.599Z,2.53
2023-03-26T23:07:46.033Z,6.32
2023-03-26T23:10:13.321Z,3.73
2023-03-26T23:12:40.026Z,5.32
2023-03-26T23:15:07.194Z,3.10
2023-03-26T23:17:38.199Z,4.97
2023-03-26T23:20:14.869Z,3.08
2023-03-26T23:22:42.652Z,5.50
2023-03-26T23:25:10.176Z,3.95
2023-03-26T23:27:37.211Z,1.70
2023-03-26T23:30:04.795Z,4.75
2023-03-26T23:32:31.367Z,4.07
2023-03-26T23:34:57.927Z,1.33
2023-03-26T23:37:24.386Z,5.47
2023-03-26T23:39:51.421Z,1.67
2023-03-26T23:42:28.892Z,4.15
2023-03-26T23:44:56.632Z,2.33
2023-03-26T23:47:23.137Z,3.90
2023-03-26T23:49:49.784Z,3.90
2023-03-26T23:52:16.182Z,3.67
2023-03-26T23:54:42.595Z,3.80
2023-03-26T23:57:09.200Z,4.63
2023-03-26T23:59:35.974Z,4.03
